Time;durP1;ratioP1;P1;durP2;ratioP2;P2;SDS_P1;SDS_P2;PMS_P1;PMS_P2;Temp;Humidity;BMP_temperature;BMP_pressure;BME280_temperature;BME280_humidity;BME280_pressure;Samples;Min_cycle;Max_cycle;Signal;HPM_P1;HPM_P2
2022/08/02 00:01:38;;;;;;;2.78;1.20;;;17.70;62.70;;;;;;5075258;28;20042;-75
2022/08/02 00:04:04;;;;;;;2.78;1.00;;;17.70;62.90;;;;;;5092352;28;20056;-75
2022/08/02 00:06:30;;;;;;;3.13;1.00;;;17.70;62.90;;;;;;5075386;28;20054;-75
2022/08/02 00:08:55;;;;;;;2.90;1.23;;;17.70;63.00;;;;;;5093517;28;20078;-75
2022/08/02 00:11:21;;;;;;;2.53;1.20;;;17.70;63.20;;;;;;5093427;28;20088;-75
2022/08/02 00:13:48;;;;;;;3.08;1.10;;;17.70;63.30;;;;;;5074577;28;20016;-76
2022/08/02 00:16:13;;;;;;;3.85;1.27;;;17.70;63.40;;;;;;5074992;28;20059;-75
2022/08/02 00:18:39;;;;;;;2.45;1.15;;;17.70;63.50;;;;;;5093069;28;20063;-75
2022/08/02 00:21:05;;;;;;;2.47;1.17;;;17.70;63.60;;;;;;5091744;28;20020;-75
2022/08/02 00:23:31;;;;;;;2.17;0.90;;;17.70;63.70;;;;;;5093245;28;20083;-76
2022/08/02 00:25:57;;;;;;;3.88;1.30;;;17.70;63.90;;;;;;5093010;28;20024;-77
2022/08/02 00:28:26;;;;;;;2.15;1.10;;;17.70;64.00;;;;;;5093078;28;20024;-76
2022/08/02 00:30:52;;;;;;;2.72;1.17;;;17.70;64.20;;;;;;5093131;28;20016;-76
2022/08/02 00:33:18;;;;;;;2.75;1.17;;;17.70;64.20;;;;;;5093000;28;20540;-76
2022/08/02 00:35:47;;;;;;;7.45;1.83;;;17.60;64.30;;;;;;5074589;28;20040;-76
2022/08/02 00:38:13;;;;;;;2.20;1.25;;;17.70;64.50;;;;;;5091622;28;20024;-75
2022/08/02 00:40:40;;;;;;;3.40;1.30;;;17.60;64.60;;;;;;5074699;28;20032;-76
2022/08/02 00:43:08;;;;;;;3.67;1.20;;;17.60;64.60;;;;;;5091481;28;20031;-76
2022/08/02 00:45:38;;;;;;;3.55;1.52;;;17.60;64.90;;;;;;5091645;28;20111;-76
2022/08/02 00:48:05;;;;;;;3.40;1.30;;;17.50;65.00;;;;;;5092820;28;20038;-75
2022/08/02 00:50:32;;;;;;;4.68;1.50;;;17.50;65.10;;;;;;5090674;28;20502;-76
2022/08/02 00:52:58;;;;;;;3.40;1.30;;;17.50;65.20;;;;;;5092567;28;20016;-76
2022/08/02 00:55:25;;;;;;;3.42;1.15;;;17.40;65.30;;;;;;5091470;28;20488;-75
2022/08/02 00:57:50;;;;;;;3.75;1.10;;;17.40;65.40;;;;;;5092693;28;20444;-75
2022/08/02 01:00:16;;;;;;;3.13;1.02;;;17.40;65.60;;;;;;5092659;28;20077;-76
2022/08/02 01:02:42;;;;;;;4.05;1.20;;;17.30;65.70;;;;;;5074423;28;20024;-75
2022/08/02 01:05:08;;;;;;;5.57;1.40;;;17.30;65.80;;;;;;5092564;28;20081;-76
2022/08/02 01:07:34;;;;;;;2.78;1.30;;;17.20;65.90;;;;;;5092484;28;20028;-76
2022/08/02 01:10:00;;;;;;;5.22;1.20;;;17.20;66.00;;;;;;5074134;28;20016;-76
2022/08/02 01:12:26;;;;;;;4.00;1.10;;;17.20;66.80;;;;;;5074244;28;20156;-76
2022/08/02 01:14:55;;;;;;;2.67;1.13;;;17.20;66.30;;;;;;5074142;28;20046;-75
2022/08/02 01:18:05;;;;;;;3.42;0.88;;;17.10;66.30;;;;;;5092860;28;20129;-76
2022/08/02 01:20:34;;;;;;;2.45;1.05;;;17.20;66.50;;;;;;5082976;28;20040;-75
2022/08/02 01:23:34;;;;;;;3.10;0.95;;;17.20;66.50;;;;;;5074020;28;20028;-76
2022/08/02 01:26:05;;;;;;;1.75;0.80;;;17.20;66.60;;;;;;5091583;28;20025;-76
2022/08/02 01:28:34;;;;;;;3.50;1.02;;;17.10;66.60;;;;;;5073919;28;20118;-76
2022/08/02 01:31:18;;;;;;;2.75;0.93;;;17.10;67.40;;;;;;5074145;28;20092;-75
2022/08/02 01:33:53;;;;;;;1.60;0.80;;;17.10;67.00;;;;;;5092249;28;20099;-75
2022/08/02 01:36:20;;;;;;;5.53;1.27;;;17.00;67.00;;;;;;5092052;28;20119;-76
2022/08/02 01:38:52;;;;;;;3.58;1.02;;;17.00;67.20;;;;;;5074288;28;20105;-76
2022/08/02 01:41:20;;;;;;;2.53;0.90;;;17.00;67.30;;;;;;5073809;28;20058;-76
2022/08/02 01:43:50;;;;;;;3.72;0.93;;;16.90;67.30;;;;;;5090623;28;20127;-76
2022/08/02 01:46:18;;;;;;;2.47;1.13;;;16.90;67.50;;;;;;5090574;28;20032;-76
2022/08/02 01:48:46;;;;;;;2.60;1.00;;;16.90;67.50;;;;;;5090675;28;20031;-75
2022/08/02 01:51:16;;;;;;;4.95;1.50;;;16.90;68.30;;;;;;5091948;28;20471;-76
2022/08/02 01:53:44;;;;;;;2.90;1.20;;;16.90;67.70;;;;;;5073606;28;20093;-76
2022/08/02 01:56:11;;;;;;;3.45;1.00;;;16.80;67.70;;;;;;5090485;28;20032;-76
2022/08/02 01:58:39;;;;;;;1.60;1.00;;;16.80;67.70;;;;;;5090267;28;20035;-76
2022/08/02 02:01:08;;;;;;;4.75;1.00;;;16.80;67.80;;;;;;5073606;28;20067;-75
2022/08/02 02:03:37;;;;;;;1.95;1.10;;;16.80;67.90;;;;;;5091868;28;20043;-75
2022/08/02 02:06:05;;;;;;;4.38;1.23;;;16.80;67.90;;;;;;5090635;28;20053;-75
2022/08/02 02:08:38;;;;;;;3.45;1.20;;;16.80;67.90;;;;;;5091578;28;20506;-75
2022/08/02 02:11:05;;;;;;;4.00;1.35;;;16.80;68.00;;;;;;5090241;28;20125;-75
2022/08/02 02:13:32;;;;;;;1.80;1.02;;;16.70;67.90;;;;;;5073529;28;20544;-76
2022/08/02 02:16:01;;;;;;;3.40;1.33;;;16.70;68.00;;;;;;5091509;28;20082;-75
2022/08/02 02:18:29;;;;;;;3.35;1.33;;;16.70;68.10;;;;;;5090076;28;20046;-76
2022/08/02 02:20:55;;;;;;;3.33;1.10;;;16.70;68.20;;;;;;5091437;28;20031;-76
2022/08/02 02:23:21;;;;;;;2.55;1.20;;;16.70;68.10;;;;;;5090213;28;20028;-76
2022/08/02 02:25:47;;;;;;;3.38;1.23;;;16.70;68.10;;;;;;5073227;28;20016;-76
2022/08/02 02:28:27;;;;;;;3.35;1.30;;;16.70;68.10;;;;;;5090148;28;20355;-76
2022/08/02 02:31:03;;;;;;;2.70;1.30;;;16.60;68.00;;;;;;5073143;28;20025;-76
2022/08/02 02:33:31;;;;;;;3.33;1.33;;;16.70;68.20;;;;;;5073265;28;20152;-75
2022/08/02 02:35:59;;;;;;;2.90;1.33;;;16.60;68.00;;;;;;5090934;28;20435;-75
2022/08/02 02:38:29;;;;;;;3.40;1.30;;;16.70;68.20;;;;;;5094928;28;20044;-76
2022/08/02 02:40:56;;;;;;;2.83;1.10;;;16.60;68.10;;;;;;5095094;28;20119;-75
2022/08/02 02:43:24;;;;;;;3.10;1.23;;;16.60;68.10;;;;;;5094765;28;20079;-77
2022/08/02 02:45:52;;;;;;;5.80;1.42;;;16.60;68.10;;;;;;5095090;28;20036;-76
2022/08/02 02:48:18;;;;;;;2.33;1.20;;;16.70;68.20;;;;;;5076382;28;20036;-76
2022/08/02 02:50:45;;;;;;;5.22;1.60;;;16.70;68.20;;;;;;5094833;28;20108;-75
2022/08/02 02:53:12;;;;;;;4.35;1.60;;;16.70;68.10;;;;;;5094698;28;20079;-75
2022/08/02 02:55:40;;;;;;;3.05;1.42;;;16.60;68.10;;;;;;5076601;28;20486;-76
2022/08/02 02:58:07;;;;;;;5.57;1.40;;;16.60;68.10;;;;;;5094523;28;20074;-75
2022/08/02 03:03:17;;;;;;;3.83;1.40;;;16.60;68.20;;;;;;5094807;28;20074;-77
2022/08/02 03:05:44;;;;;;;2.53;1.40;;;16.60;68.20;;;;;;5094670;28;20028;-76
2022/08/02 03:08:11;;;;;;;2.20;1.25;;;16.60;68.20;;;;;;5076488;28;20032;-76
2022/08/02 03:10:38;;;;;;;2.70;1.20;;;16.70;68.20;;;;;;5076318;28;20039;-76
2022/08/02 03:13:04;;;;;;;4.78;1.50;;;16.70;68.20;;;;;;5094593;28;20364;-76
2022/08/02 03:15:30;;;;;;;3.45;1.40;;;16.70;68.20;;;;;;5093317;28;20030;-75
2022/08/02 03:17:56;;;;;;;2.55;1.60;;;16.70;68.30;;;;;;5076150;28;20505;-76
2022/08/02 03:20:22;;;;;;;3.13;1.42;;;16.70;68.30;;;;;;5076384;28;20028;-76
2022/08/02 03:22:48;;;;;;;7.93;1.80;;;16.60;68.30;;;;;;5094392;28;20487;-76
2022/08/02 03:25:15;;;;;;;3.83;1.45;;;16.60;68.40;;;;;;5094203;28;20111;-76
2022/08/02 03:27:41;;;;;;;3.10;1.50;;;16.60;68.40;;;;;;5075967;28;20020;-76
2022/08/02 03:30:10;;;;;;;2.78;1.50;;;16.50;68.50;;;;;;5094467;28;20514;-76
2022/08/02 03:32:37;;;;;;;2.22;1.50;;;16.50;68.60;;;;;;5091857;28;20128;-74
2022/08/02 03:35:05;;;;;;;1.63;1.33;;;16.50;68.60;;;;;;5093718;28;20035;-74
2022/08/02 03:37:32;;;;;;;5.68;1.65;;;16.50;68.70;;;;;;5092875;28;20069;-75
2022/08/02 03:39:59;;;;;;;2.55;1.42;;;16.50;68.80;;;;;;5094187;28;20072;-75
2022/08/02 03:42:27;;;;;;;3.90;1.50;;;16.50;68.80;;;;;;5092552;28;20055;-75
2022/08/02 03:44:55;;;;;;;3.08;1.60;;;16.50;68.90;;;;;;5092491;28;20198;-75
2022/08/02 03:47:22;;;;;;;2.72;1.75;;;16.50;68.90;;;;;;5091531;28;20488;-75
2022/08/02 03:49:48;;;;;;;2.65;1.60;;;16.50;68.80;;;;;;5093919;28;20036;-74
2022/08/02 03:52:14;;;;;;;2.63;1.50;;;16.60;68.90;;;;;;5093778;28;20028;-75
2022/08/02 03:54:40;;;;;;;3.60;1.50;;;16.60;68.90;;;;;;5092178;28;20116;-75
2022/08/02 03:57:06;;;;;;;3.40;1.40;;;16.60;68.80;;;;;;5075273;28;20028;-75
2022/08/02 03:59:43;;;;;;;2.47;1.40;;;16.70;68.80;;;;;;5093577;28;20158;-75
2022/08/02 04:02:09;;;;;;;2.22;1.40;;;16.80;68.90;;;;;;5075256;28;20085;-75
2022/08/02 04:04:35;;;;;;;3.28;1.63;;;16.80;68.80;;;;;;5093617;28;20152;-75
2022/08/02 04:07:01;;;;;;;2.85;1.63;;;16.90;68.80;;;;;;5093398;28;20036;-75
2022/08/02 04:09:26;;;;;;;6.53;1.70;;;16.90;68.70;;;;;;5075054;28;20028;-74
2022/08/02 04:11:52;;;;;;;3.80;1.70;;;16.90;68.70;;;;;;5093360;28;20099;-74
2022/08/02 04:14:18;;;;;;;4.32;1.80;;;16.90;68.80;;;;;;5074768;28;20020;-75
2022/08/02 04:16:48;;;;;;;3.58;1.80;;;16.90;68.80;;;;;;5074884;28;20035;-74
2022/08/02 04:19:26;;;;;;;3.00;1.70;;;16.90;68.80;;;;;;5091707;28;20027;-77
2022/08/02 04:21:53;;;;;;;3.10;1.80;;;17.00;68.80;;;;;;5091923;28;20031;-74
2022/08/02 04:24:48;;;;;;;4.18;1.63;;;17.00;68.70;;;;;;5093158;28;20037;-74
2022/08/02 04:27:14;;;;;;;3.97;1.75;;;17.00;68.70;;;;;;5091383;28;20035;-74
2022/08/02 04:29:40;;;;;;;3.58;1.60;;;17.00;68.50;;;;;;5092694;28;20480;-75
2022/08/02 04:32:07;;;;;;;2.92;1.58;;;17.10;68.50;;;;;;5074098;28;20035;-75
2022/08/02 04:34:32;;;;;;;2.22;1.77;;;17.10;68.60;;;;;;5093047;28;20134;-75
2022/08/02 04:36:58;;;;;;;5.93;1.80;;;17.10;68.50;;;;;;5092770;28;20495;-75
2022/08/02 04:39:25;;;;;;;6.28;2.08;;;17.10;68.50;;;;;;5091306;28;20074;-75
2022/08/02 04:41:50;;;;;;;3.50;1.73;;;17.10;68.50;;;;;;5074545;28;20024;-74
2022/08/02 04:44:16;;;;;;;4.20;1.90;;;17.10;68.60;;;;;;5074557;28;20110;-74
2022/08/02 04:46:43;;;;;;;3.38;1.77;;;17.10;68.60;;;;;;5092802;28;20507;-75
2022/08/02 04:49:09;;;;;;;7.20;1.90;;;17.10;68.80;;;;;;5091316;28;20028;-75
2022/08/02 04:51:36;;;;;;;2.95;1.70;;;17.00;68.80;;;;;;5091052;28;20035;-74
2022/08/02 04:54:03;;;;;;;4.10;2.17;;;17.00;68.80;;;;;;5092936;28;20055;-75
2022/08/02 04:56:28;;;;;;;3.28;1.70;;;17.00;68.80;;;;;;5092911;28;20061;-74
2022/08/02 04:58:54;;;;;;;4.65;1.90;;;17.10;68.80;;;;;;5074243;28;20119;-75
2022/08/02 05:01:19;;;;;;;3.08;2.00;;;17.10;68.80;;;;;;5092671;28;20549;-75
2022/08/02 05:03:45;;;;;;;4.22;2.28;;;17.20;68.80;;;;;;5074404;28;20028;-75
2022/08/02 05:06:11;;;;;;;5.47;2.25;;;17.20;68.70;;;;;;5092747;28;20106;-75
2022/08/02 05:08:37;;;;;;;6.43;2.22;;;17.20;68.70;;;;;;5092162;28;20491;-75
2022/08/02 05:11:02;;;;;;;3.85;2.13;;;17.20;68.80;;;;;;5092226;28;20548;-75
2022/08/02 05:13:28;;;;;;;6.28;2.30;;;17.20;68.80;;;;;;5090803;28;20360;-73
2022/08/02 05:15:54;;;;;;;4.13;2.17;;;17.20;68.90;;;;;;5092439;28;20101;-74
2022/08/02 05:18:19;;;;;;;3.88;2.20;;;17.30;69.00;;;;;;5073957;28;20466;-74
2022/08/02 05:20:45;;;;;;;7.05;2.70;;;17.20;69.00;;;;;;5073676;28;20131;-74
2022/08/02 05:23:11;;;;;;;4.35;1.92;;;17.20;69.00;;;;;;5091931;28;20395;-74
2022/08/02 05:25:36;;;;;;;3.92;2.05;;;17.30;69.20;;;;;;5073593;28;20024;-75
2022/08/02 05:28:02;;;;;;;6.50;2.45;;;17.30;69.20;;;;;;5092061;28;20499;-75
2022/08/02 05:30:28;;;;;;;6.38;2.40;;;17.30;69.20;;;;;;5092242;28;20434;-74
2022/08/02 05:32:53;;;;;;;3.22;2.20;;;17.30;69.20;;;;;;5092399;28;20051;-74
2022/08/02 05:35:21;;;;;;;3.20;2.03;;;17.40;69.30;;;;;;5073996;28;20040;-75
2022/08/02 05:37:48;;;;;;;5.65;2.60;;;17.40;69.30;;;;;;5091262;28;20028;-75
2022/08/02 05:40:15;;;;;;;6.78;2.22;;;17.40;69.30;;;;;;5092440;28;20027;-75
2022/08/02 05:42:41;;;;;;;3.88;2.30;;;17.40;69.20;;;;;;5092292;28;20031;-75
2022/08/02 05:45:07;;;;;;;5.65;2.40;;;17.40;69.20;;;;;;5074309;28;20368;-75
2022/08/02 05:47:33;;;;;;;3.95;2.20;;;17.50;69.20;;;;;;5091958;28;20127;-74
2022/08/02 05:49:59;;;;;;;4.70;2.45;;;17.50;69.20;;;;;;5073926;28;20440;-75
2022/08/02 05:52:32;;;;;;;6.20;2.60;;;17.60;69.20;;;;;;5092008;28;20435;-74
2022/08/02 05:55:06;;;;;;;;;;;17.60;69.20;;;;;;5092589;28;20058;-75
2022/08/02 05:57:50;;;;;;;4.10;2.10;;;17.60;69.70;;;;;;5091990;28;20356;-74
2022/08/02 06:00:16;;;;;;;9.55;3.05;;;17.60;69.00;;;;;;5073779;28;20032;-75
2022/08/02 06:02:41;;;;;;;5.20;2.13;;;17.70;68.90;;;;;;5092296;28;20028;-75
2022/08/02 06:05:12;;;;;;;6.32;2.50;;;17.80;68.90;;;;;;5092492;28;20506;-74
2022/08/02 06:07:41;;;;;;;5.38;2.00;;;17.80;68.80;;;;;;5092193;28;20032;-75
2022/08/02 06:10:08;;;;;;;4.60;2.15;;;17.90;68.70;;;;;;5092002;28;20032;-75
2022/08/02 06:12:55;;;;;;;6.45;2.40;;;18.00;68.60;;;;;;5094748;28;20020;-75
2022/08/02 06:15:20;;;;;;;5.38;2.50;;;18.10;68.50;;;;;;5095984;28;20548;-75
2022/08/02 06:17:46;;;;;;;4.40;2.30;;;18.20;68.40;;;;;;5077860;28;20032;-75
2022/08/02 06:20:14;;;;;;;5.85;2.47;;;18.20;68.20;;;;;;5095925;28;20043;-75
2022/08/02 06:22:44;;;;;;;4.03;2.35;;;18.30;68.20;;;;;;5077607;28;20028;-75
2022/08/02 06:25:12;;;;;;;5.70;2.40;;;18.40;68.10;;;;;;5094581;28;20121;-74
2022/08/02 06:27:38;;;;;;;6.57;2.33;;;18.40;67.90;;;;;;5094359;28;20428;-74
2022/08/02 06:30:05;;;;;;;3.63;2.30;;;18.50;67.90;;;;;;5077468;28;20020;-75
2022/08/02 06:32:33;;;;;;;5.10;2.38;;;18.60;67.80;;;;;;5095608;28;20052;-74
2022/08/02 06:34:58;;;;;;;4.93;2.15;;;18.60;67.70;;;;;;5095373;28;20471;-75
2022/08/02 06:38:10;;;;;;;8.30;2.60;;;18.70;67.70;;;;;;5095509;28;20038;-75
2022/08/02 06:40:47;;;;;;;5.72;2.50;;;18.70;67.70;;;;;;4996918;28;20101;-75
2022/08/02 06:43:22;;;;;;;4.68;2.30;;;18.80;67.70;;;;;;5084744;28;20044;-75
2022/08/02 06:45:48;;;;;;;4.65;2.60;;;18.80;67.70;;;;;;5095331;28;20044;-76
2022/08/02 06:48:13;;;;;;;4.60;2.22;;;18.90;67.70;;;;;;5095263;28;20490;-75
2022/08/02 06:50:42;;;;;;;6.88;2.83;;;18.90;67.80;;;;;;5077082;28;20069;-75
2022/08/02 06:53:09;;;;;;;5.05;2.40;;;18.90;67.80;;;;;;5095613;28;20024;-74
2022/08/02 06:55:34;;;;;;;5.28;2.40;;;18.90;67.80;;;;;;5093871;28;20035;-75
2022/08/02 06:58:01;;;;;;;5.68;2.45;;;19.00;68.50;;;;;;5095274;28;20036;-75
2022/08/02 07:00:27;;;;;;;3.80;2.13;;;19.10;68.00;;;;;;5077236;28;20551;-74
2022/08/02 07:06:15;;;;;;;3.53;2.20;;;19.30;68.00;;;;;;5096013;28;20505;-75
2022/08/02 07:08:41;;;;;;;3.10;2.03;;;19.30;67.80;;;;;;5077110;28;20048;-75
2022/08/02 07:11:08;;;;;;;5.22;2.20;;;19.40;67.80;;;;;;5077063;28;20526;-75
2022/08/02 07:13:35;;;;;;;4.43;2.22;;;19.50;67.80;;;;;;5090863;28;20047;-75
2022/08/02 07:16:02;;;;;;;2.95;1.77;;;19.60;67.80;;;;;;5077296;28;20060;-76
2022/08/02 07:18:28;;;;;;;4.28;2.00;;;19.60;67.80;;;;;;5077080;28;20480;-76
2022/08/02 07:20:53;;;;;;;4.03;2.28;;;19.70;67.80;;;;;;5077235;28;20025;-76
2022/08/02 07:23:19;;;;;;;4.88;2.58;;;19.80;67.70;;;;;;5076119;28;20031;-76
2022/08/02 07:25:46;;;;;;;3.95;2.08;;;19.90;67.70;;;;;;5077303;28;20114;-77
2022/08/02 07:28:14;;;;;;;6.72;2.20;;;20.00;67.70;;;;;;5094991;28;20025;-76
2022/08/02 07:30:41;;;;;;;5.68;2.60;;;20.00;67.50;;;;;;5093695;28;20024;-77
2022/08/02 07:33:07;;;;;;;7.00;2.55;;;20.10;67.30;;;;;;5093746;28;20016;-76
2022/08/02 07:35:33;;;;;;;5.40;2.13;;;20.20;67.40;;;;;;5076591;28;20124;-77
2022/08/02 07:37:59;;;;;;;4.32;2.13;;;20.20;67.30;;;;;;5076635;28;20070;-77
2022/08/02 07:40:25;;;;;;;4.28;2.40;;;20.40;67.30;;;;;;5076619;28;20031;-78
2022/08/02 07:42:54;;;;;;;3.92;2.30;;;20.40;67.20;;;;;;5072498;28;20041;-77
2022/08/02 07:45:21;;;;;;;3.90;2.45;;;20.50;67.20;;;;;;5072164;28;20032;-77
2022/08/02 07:47:49;;;;;;;3.97;2.47;;;20.60;67.20;;;;;;5072510;28;20551;-77
2022/08/02 07:50:17;;;;;;;4.00;2.47;;;20.60;67.10;;;;;;5072200;28;20513;-77
2022/08/02 07:52:46;;;;;;;3.22;2.28;;;20.70;67.20;;;;;;5053084;28;20052;-77
2022/08/02 07:55:14;;;;;;;3.50;2.40;;;20.80;67.20;;;;;;5072178;28;20365;-77
2022/08/02 07:57:41;;;;;;;3.17;2.30;;;20.90;67.20;;;;;;5069358;28;20134;-77
2022/08/02 08:00:10;;;;;;;3.80;2.50;;;21.00;67.60;;;;;;5055239;28;20506;-76
2022/08/02 08:02:35;;;;;;;3.97;2.28;;;21.10;67.00;;;;;;5069287;28;20090;-76
2022/08/02 08:05:01;;;;;;;6.03;2.45;;;21.10;66.80;;;;;;5071921;28;20033;-76
2022/08/02 08:07:27;;;;;;;3.70;2.30;;;21.20;67.00;;;;;;5072001;28;20029;-76
2022/08/02 08:09:53;;;;;;;4.50;2.80;;;21.30;66.90;;;;;;5071942;28;20490;-76
2022/08/02 08:12:18;;;;;;;4.50;2.33;;;21.40;66.90;;;;;;5054741;28;20052;-75
2022/08/02 08:14:44;;;;;;;5.70;3.05;;;21.50;66.90;;;;;;5091736;28;20089;-76
2022/08/02 08:17:10;;;;;;;4.75;2.70;;;21.50;66.80;;;;;;5075690;28;20016;-76
2022/08/02 08:19:35;;;;;;;5.65;3.13;;;21.60;66.70;;;;;;5093607;28;20020;-76
2022/08/02 08:22:02;;;;;;;3.65;2.55;;;21.70;66.60;;;;;;5075458;28;20394;-76
2022/08/02 08:24:28;;;;;;;3.00;2.80;;;21.80;66.50;;;;;;5093579;28;20383;-76
2022/08/02 08:26:54;;;;;;;5.13;2.83;;;21.90;66.40;;;;;;5075512;28;20020;-76
2022/08/02 08:29:20;;;;;;;5.63;2.90;;;22.00;66.20;;;;;;5093785;28;20047;-76
2022/08/02 08:31:46;;;;;;;4.95;3.00;;;22.10;66.00;;;;;;5075436;28;20027;-76
2022/08/02 08:34:12;;;;;;;5.15;3.13;;;22.20;65.90;;;;;;5093148;28;20098;-76
2022/08/02 08:36:38;;;;;;;4.75;3.38;;;22.20;65.70;;;;;;5093548;28;20036;-76
2022/08/02 08:39:04;;;;;;;5.38;3.53;;;22.30;65.40;;;;;;5093634;28;20035;-75
2022/08/02 08:41:29;;;;;;;5.15;3.40;;;22.30;65.00;;;;;;5075225;28;20077;-76
2022/08/02 08:43:55;;;;;;;6.30;3.78;;;22.40;64.80;;;;;;5093820;28;20480;-76
2022/08/02 08:46:29;;;;;;;5.28;3.75;;;22.40;64.70;;;;;;5075056;28;20031;-76
2022/08/02 08:49:17;;;;;;;5.18;3.72;;;22.40;64.60;;;;;;5093322;28;20028;-76
2022/08/02 08:51:43;;;;;;;4.25;3.17;;;22.40;64.50;;;;;;5075264;28;20024;-76
2022/08/02 08:54:15;;;;;;;5.45;3.30;;;22.50;64.60;;;;;;5093224;28;20100;-76
2022/08/02 08:56:41;;;;;;;5.57;3.80;;;22.50;64.40;;;;;;5093427;28;20216;-76
2022/08/02 08:59:07;;;;;;;4.53;3.70;;;22.60;64.40;;;;;;5091702;28;20060;-76
2022/08/02 09:01:33;;;;;;;3.78;3.00;;;22.60;64.30;;;;;;5074759;28;20032;-76
2022/08/02 09:03:59;;;;;;;4.28;3.30;;;22.70;63.70;;;;;;5074759;28;20020;-76
2022/08/02 09:06:25;;;;;;;5.82;3.45;;;22.80;63.70;;;;;;5092809;28;20103;-76
2022/08/02 09:08:51;;;;;;;4.88;3.28;;;22.80;63.50;;;;;;5072289;28;20031;-76
2022/08/02 09:11:21;;;;;;;4.47;3.10;;;22.90;63.50;;;;;;5074466;28;20035;-76
2022/08/02 09:13:58;;;;;;;4.07;3.20;;;23.00;63.20;;;;;;5092882;28;20052;-76
2022/08/02 09:16:42;;;;;;;5.15;3.45;;;23.00;62.50;;;;;;5092726;28;20028;-76
2022/08/02 09:19:22;;;;;;;5.13;2.60;;;23.10;62.40;;;;;;5092944;28;20077;-76
2022/08/02 09:22:09;;;;;;;2.83;2.00;;;23.10;62.40;;;;;;5092922;28;20461;-76
2022/08/02 09:24:46;;;;;;;3.15;2.30;;;23.10;62.00;;;;;;5092038;28;20495;-76
2022/08/02 09:27:17;;;;;;;2.75;2.00;;;23.10;60.90;;;;;;5093370;28;20024;-76
2022/08/02 09:29:47;;;;;;;3.65;1.80;;;23.20;60.70;;;;;;5091575;28;20095;-76
2022/08/02 09:32:15;;;;;;;4.45;2.50;;;23.20;60.60;;;;;;5092858;28;20510;-76
2022/08/02 09:34:47;;;;;;;2.35;1.80;;;23.20;60.50;;;;;;5092657;28;20018;-77
2022/08/02 09:37:27;;;;;;;4.75;1.75;;;23.20;60.40;;;;;;5092522;28;20380;-76
2022/08/02 09:39:55;;;;;;;2.15;1.60;;;23.30;60.40;;;;;;5092538;28;20359;-76
2022/08/02 09:42:21;;;;;;;1.80;1.40;;;23.30;60.10;;;;;;5092639;28;20118;-77
2022/08/02 09:45:00;;;;;;;1.50;1.00;;;23.40;59.90;;;;;;5074107;28;20111;-76
2022/08/02 09:47:27;;;;;;;1.35;1.25;;;23.50;59.50;;;;;;5090772;28;20115;-76
2022/08/02 09:49:54;;;;;;;3.22;1.17;;;23.50;59.30;;;;;;5092500;28;20038;-76
2022/08/02 09:52:30;;;;;;;1.50;1.35;;;23.60;59.40;;;;;;5091148;28;20020;-76
2022/08/02 09:55:05;;;;;;;2.03;1.40;;;23.60;59.30;;;;;;5091050;28;20372;-76
2022/08/02 09:57:37;;;;;;;1.35;1.20;;;23.80;59.30;;;;;;5091008;28;20509;-76
2022/08/02 10:00:09;;;;;;;1.80;1.30;;;23.90;59.20;;;;;;5074222;28;20336;-76
2022/08/02 10:02:35;;;;;;;2.57;1.40;;;23.90;58.80;;;;;;5091033;28;20020;-77
2022/08/02 10:05:00;;;;;;;2.70;1.40;;;23.90;58.70;;;;;;5092504;28;20742;-77
2022/08/02 10:07:26;;;;;;;1.90;1.15;;;24.00;58.60;;;;;;5092360;28;20389;-77
2022/08/02 10:09:51;;;;;;;1.75;1.50;;;24.00;58.40;;;;;;5074755;28;20057;-76
2022/08/02 10:12:19;;;;;;;1.42;1.33;;;24.00;58.40;;;;;;5074408;28;20019;-76
2022/08/02 10:14:45;;;;;;;1.60;1.50;;;24.10;58.60;;;;;;5092479;28;20026;-77
2022/08/02 10:17:11;;;;;;;2.00;1.40;;;24.10;58.40;;;;;;5092420;28;20095;-75
2022/08/02 10:19:36;;;;;;;1.60;1.50;;;24.20;58.00;;;;;;5073822;28;20022;-75
2022/08/02 10:22:09;;;;;;;2.67;1.35;;;24.30;57.90;;;;;;5073999;28;20069;-75
2022/08/02 10:24:36;;;;;;;;;;;24.40;57.50;;;;;;5074560;28;20038;-76
2022/08/02 10:27:02;;;;;;;1.88;1.50;;;24.50;57.40;;;;;;5073826;28;19912;-76
2022/08/02 10:29:38;;;;;;;5.05;1.75;;;24.60;57.40;;;;;;5073862;28;20395;-75
2022/08/02 10:32:14;;;;;;;1.90;1.50;;;24.60;57.20;;;;;;5092169;28;20472;-75
2022/08/02 10:34:42;;;;;;;3.50;1.58;;;24.70;57.00;;;;;;5091887;28;20027;-76
2022/08/02 10:37:09;;;;;;;1.20;1.10;;;24.80;57.00;;;;;;5072028;28;20055;-76
2022/08/02 10:39:43;;;;;;;3.08;1.48;;;24.90;57.00;;;;;;5072034;28;20020;-76
2022/08/02 10:42:09;;;;;;;1.25;1.15;;;25.00;56.80;;;;;;5070596;28;20028;-76
2022/08/02 10:44:36;;;;;;;2.13;1.08;;;25.00;56.50;;;;;;5072157;28;20027;-76
2022/08/02 10:47:14;;;;;;;1.63;1.35;;;25.00;56.40;;;;;;5087332;28;20394;-76
2022/08/02 10:49:52;;;;;;;1.40;1.30;;;25.00;56.00;;;;;;5072119;28;20432;-76
2022/08/02 10:52:19;;;;;;;1.77;1.00;;;25.10;56.20;;;;;;5070278;28;20036;-76
2022/08/02 10:54:54;;;;;;;1.70;1.35;;;25.10;56.20;;;;;;5071822;28;20019;-76
2022/08/02 10:57:21;;;;;;;1.40;1.30;;;25.20;55.80;;;;;;5072057;28;20024;-75
2022/08/02 10:59:50;;;;;;;1.75;1.20;;;25.20;55.30;;;;;;5075583;28;20024;-76
2022/08/02 11:02:39;;;;;;;1.85;1.20;;;25.30;55.70;;;;;;5090748;28;20434;-76
2022/08/02 11:05:06;;;;;;;1.00;1.00;;;25.40;54.70;;;;;;5090775;28;20492;-76
2022/08/02 11:07:39;;;;;;;1.20;1.10;;;25.50;53.70;;;;;;5075219;28;20025;-76
2022/08/02 11:10:26;;;;;;;1.77;1.10;;;25.60;53.60;;;;;;5091007;28;20111;-76
2022/08/02 11:12:59;;;;;;;1.23;1.13;;;25.70;53.30;;;;;;5075020;28;20103;-76
2022/08/02 11:15:25;;;;;;;;;;;25.70;52.60;;;;;;5073840;28;20028;-76
2022/08/02 11:17:52;;;;;;;1.55;1.42;;;25.90;53.00;;;;;;5073656;28;19926;-76
2022/08/02 11:20:19;;;;;;;2.85;1.08;;;25.90;52.90;;;;;;5090236;28;20029;-76
2022/08/02 11:22:46;;;;;;;3.28;1.50;;;26.00;52.30;;;;;;5075445;28;20525;-76
2022/08/02 11:25:21;;;;;;;1.10;1.00;;;26.10;52.00;;;;;;5075635;28;20476;-76
2022/08/02 11:28:07;;;;;;;0.93;0.93;;;26.20;51.70;;;;;;5073789;28;20033;-76
2022/08/02 11:30:33;;;;;;;1.00;0.90;;;26.30;51.80;;;;;;5075666;28;20017;-76
2022/08/02 11:32:59;;;;;;;1.20;1.10;;;26.30;51.40;;;;;;5074393;28;20027;-76
2022/08/02 11:35:38;;;;;;;1.00;0.95;;;26.30;51.30;;;;;;5090788;28;20044;-76
2022/08/02 11:38:19;;;;;;;1.00;1.00;;;26.30;50.90;;;;;;5075292;28;20573;-76
2022/08/02 11:40:46;;;;;;;1.33;1.23;;;26.20;50.70;;;;;;5090658;28;20028;-76
2022/08/02 11:43:16;;;;;;;2.17;0.93;;;26.30;50.90;;;;;;5075138;28;20509;-76
2022/08/02 11:45:42;;;;;;;1.02;1.02;;;26.30;51.00;;;;;;5075240;28;20040;-76
2022/08/02 11:48:07;;;;;;;1.20;1.10;;;26.30;50.80;;;;;;5077461;28;20476;-78
2022/08/02 11:50:33;;;;;;;1.10;1.10;;;26.40;50.80;;;;;;5076165;28;20017;-78
2022/08/02 11:52:59;;;;;;;2.80;1.20;;;26.40;50.60;;;;;;5093468;28;20023;-78
2022/08/02 11:55:29;;;;;;;1.45;1.20;;;26.50;50.20;;;;;;5075877;28;20054;-78
2022/08/02 11:58:00;;;;;;;1.10;1.00;;;26.60;50.20;;;;;;5076291;28;20029;-78
2022/08/02 12:00:25;;;;;;;1.23;1.00;;;26.70;50.30;;;;;;5077599;28;20059;-78
2022/08/02 12:02:51;;;;;;;1.10;1.00;;;26.80;50.00;;;;;;5076872;28;20419;-78
2022/08/02 12:05:22;;;;;;;1.48;1.00;;;26.90;49.30;;;;;;5077308;28;20036;-77
2022/08/02 12:07:50;;;;;;;1.20;1.10;;;26.80;48.90;;;;;;5077767;28;20056;-78
2022/08/02 12:10:19;;;;;;;1.10;0.90;;;26.90;48.90;;;;;;5092643;28;20031;-78
2022/08/02 12:12:53;;;;;;;0.80;0.80;;;26.90;49.00;;;;;;5075875;28;20021;-78
2022/08/02 12:15:40;;;;;;;1.45;1.35;;;26.90;48.90;;;;;;5093545;28;20123;-77
2022/08/02 12:20:55;;;;;;;1.58;0.90;;;27.10;48.50;;;;;;5078696;28;20067;-78
2022/08/02 12:23:21;;;;;;;1.75;1.20;;;27.10;48.60;;;;;;5078266;28;20454;-78
2022/08/02 12:26:00;;;;;;;1.10;1.00;;;27.20;48.50;;;;;;5076899;28;20042;-78
2022/08/02 12:28:25;;;;;;;1.35;1.10;;;27.30;47.80;;;;;;5077607;28;20020;-79
2022/08/02 12:30:57;;;;;;;2.10;1.00;;;27.30;47.70;;;;;;5076697;28;20028;-78
2022/08/02 12:33:24;;;;;;;0.98;0.80;;;27.40;47.60;;;;;;5093555;28;20017;-78
2022/08/02 12:35:51;;;;;;;0.93;0.90;;;27.50;47.60;;;;;;5087788;28;20578;-78
2022/08/02 12:38:17;;;;;;;1.05;0.90;;;27.60;47.40;;;;;;5098155;28;20028;-78
2022/08/02 12:40:44;;;;;;;1.42;1.10;;;27.70;47.00;;;;;;5098997;28;20107;-79
2022/08/02 12:46:32;;;;;;;0.90;0.90;;;27.80;46.70;;;;;;5097229;28;20098;-78
2022/08/02 12:48:58;;;;;;;3.47;0.90;;;27.90;46.80;;;;;;5094740;28;20095;-77
2022/08/02 12:51:35;;;;;;;3.10;1.20;;;28.10;46.50;;;;;;5039121;28;20133;-77
2022/08/02 12:54:37;;;;;;;0.65;0.63;;;28.20;46.10;;;;;;5057208;28;20131;-79
2022/08/02 12:57:10;;;;;;;1.75;0.60;;;28.20;45.70;;;;;;5029394;28;20037;-77
2022/08/02 12:59:38;;;;;;;2.13;0.95;;;28.20;45.90;;;;;;5038876;28;20021;-77
2022/08/02 13:02:06;;;;;;;0.70;0.70;;;28.30;45.80;;;;;;5056502;28;20041;-78
2022/08/02 13:04:32;;;;;;;2.15;0.80;;;28.40;45.50;;;;;;5039623;28;20021;-78
2022/08/02 13:06:58;;;;;;;2.35;0.90;;;28.50;45.20;;;;;;5057604;28;20037;-78
2022/08/02 13:09:23;;;;;;;0.80;0.80;;;28.60;45.10;;;;;;5055642;28;20028;-77